sensor_id;sensor_type;location;lat;lon;timestamp;temperature;humidity
66035;HTU21D;52805;51.074;5.842;2024-01-10T00:02:20;-1.89;8.02
66035;HTU21D;52805;51.074;5.842;2024-01-10T00:04:45;-1.88;8.03
66035;HTU21D;52805;51.074;5.842;2024-01-10T00:07:11;-1.90;7.74
66035;HTU21D;52805;51.074;5.842;2024-01-10T00:09:37;-1.90;8.01
66035;HTU21D;52805;51.074;5.842;2024-01-10T00:12:02;-1.94;8.36
66035;HTU21D;52805;51.074;5.842;2024-01-10T00:14:28;-1.95;8.69
66035;HTU21D;52805;51.074;5.842;2024-01-10T00:16:54;-1.95;9.18
66035;HTU21D;52805;51.074;5.842;2024-01-10T00:19:19;-1.97;9.50
66035;HTU21D;52805;51.074;5.842;2024-01-10T00:21:45;-1.98;9.45
66035;HTU21D;52805;51.074;5.842;2024-01-10T00:24:10;-1.98;9.83
66035;HTU21D;52805;51.074;5.842;2024-01-10T00:26:36;-1.95;9.58
66035;HTU21D;52805;51.074;5.842;2024-01-10T00:29:02;-2.00;9.28
66035;HTU21D;52805;51.074;5.842;2024-01-10T00:31:27;-1.98;9.14
66035;HTU21D;52805;51.074;5.842;2024-01-10T00:33:53;-2.00;9.22
66035;HTU21D;52805;51.074;5.842;2024-01-10T00:36:19;-2.02;9.05
66035;HTU21D;52805;51.074;5.842;2024-01-10T00:38:44;-2.05;9.17
66035;HTU21D;52805;51.074;5.842;2024-01-10T00:41:10;-2.05;8.98
66035;HTU21D;52805;51.074;5.842;2024-01-10T00:43:37;-2.08;9.20
66035;HTU21D;52805;51.074;5.842;2024-01-10T00:46:03;-2.10;9.05
66035;HTU21D;52805;51.074;5.842;2024-01-10T00:48:29;-2.13;9.01
66035;HTU21D;52805;51.074;5.842;2024-01-10T00:50:54;-2.16;9.41
66035;HTU21D;52805;51.074;5.842;2024-01-10T00:53:20;-2.16;9.98
66035;HTU21D;52805;51.074;5.842;2024-01-10T00:55:46;-2.16;10.54
66035;HTU21D;52805;51.074;5.842;2024-01-10T00:58:11;-2.14;10.89
66035;HTU21D;52805;51.074;5.842;2024-01-10T01:00:37;-2.19;10.98
66035;HTU21D;52805;51.074;5.842;2024-01-10T01:03:03;-2.17;11.32
66035;HTU21D;52805;51.074;5.842;2024-01-10T01:05:28;-2.17;11.06
66035;HTU21D;52805;51.074;5.842;2024-01-10T01:07:54;-2.21;11.24
66035;HTU21D;52805;51.074;5.842;2024-01-10T01:10:20;-2.21;11.33
66035;HTU21D;52805;51.074;5.842;2024-01-10T01:12:45;-2.24;11.56
66035;HTU21D;52805;51.074;5.842;2024-01-10T01:15:11;-2.24;11.96
66035;HTU21D;52805;51.074;5.842;2024-01-10T01:17:37;-2.28;11.82
66035;HTU21D;52805;51.074;5.842;2024-01-10T01:20:03;-2.29;12.23
66035;HTU21D;52805;51.074;5.842;2024-01-10T01:22:30;-2.29;12.41
66035;HTU21D;52805;51.074;5.842;2024-01-10T01:24:57;-2.30;12.73
66035;HTU21D;52805;51.074;5.842;2024-01-10T01:27:23;-2.31;12.99
66035;HTU21D;52805;51.074;5.842;2024-01-10T01:29:49;-2.33;13.30
66035;HTU21D;52805;51.074;5.842;2024-01-10T01:32:14;-2.35;13.56
66035;HTU21D;52805;51.074;5.842;2024-01-10T01:34:40;-2.36;13.97
66035;HTU21D;52805;51.074;5.842;2024-01-10T01:37:06;-2.36;14.24
66035;HTU21D;52805;51.074;5.842;2024-01-10T01:39:32;-2.38;14.39
66035;HTU21D;52805;51.074;5.842;2024-01-10T01:41:57;-2.36;14.54
66035;HTU21D;52805;51.074;5.842;2024-01-10T01:44:23;-2.37;14.28
66035;HTU21D;52805;51.074;5.842;2024-01-10T01:46:49;-2.37;14.43
66035;HTU21D;52805;51.074;5.842;2024-01-10T01:49:15;-2.38;14.54
66035;HTU21D;52805;51.074;5.842;2024-01-10T01:51:42;-2.38;14.45
66035;HTU21D;52805;51.074;5.842;2024-01-10T01:54:08;-2.38;14.58
66035;HTU21D;52805;51.074;5.842;2024-01-10T01:56:36;-2.37;14.59
66035;HTU21D;52805;51.074;5.842;2024-01-10T01:59:04;-2.36;14.59
66035;HTU21D;52805;51.074;5.842;2024-01-10T02:01:30;-2.39;14.72
66035;HTU21D;52805;51.074;5.842;2024-01-10T02:03:56;-2.41;14.90
66035;HTU21D;52805;51.074;5.842;2024-01-10T02:06:22;-2.42;15.06
66035;HTU21D;52805;51.074;5.842;2024-01-10T02:08:48;-2.44;15.39
66035;HTU21D;52805;51.074;5.842;2024-01-10T02:11:15;-2.45;15.57
66035;HTU21D;52805;51.074;5.842;2024-01-10T02:13:41;-2.47;15.84
66035;HTU21D;52805;51.074;5.842;2024-01-10T02:16:07;-2.48;15.77
66035;HTU21D;52805;51.074;5.842;2024-01-10T02:18:34;-2.51;16.15
66035;HTU21D;52805;51.074;5.842;2024-01-10T02:21:01;-2.51;16.33
66035;HTU21D;52805;51.074;5.842;2024-01-10T02:23:26;-2.52;16.12
66035;HTU21D;52805;51.074;5.842;2024-01-10T02:25:52;-2.53;16.16
66035;HTU21D;52805;51.074;5.842;2024-01-10T02:28:18;-2.52;16.30
66035;HTU21D;52805;51.074;5.842;2024-01-10T02:30:43;-2.50;16.33
66035;HTU21D;52805;51.074;5.842;2024-01-10T02:33:09;-2.51;16.18
66035;HTU21D;52805;51.074;5.842;2024-01-10T02:35:35;-2.51;16.45
66035;HTU21D;52805;51.074;5.842;2024-01-10T02:38:02;-2.54;16.80
66035;HTU21D;52805;51.074;5.842;2024-01-10T02:40:28;-2.54;16.90
66035;HTU21D;52805;51.074;5.842;2024-01-10T02:42:54;-2.58;17.03
66035;HTU21D;52805;51.074;5.842;2024-01-10T02:45:19;-2.57;17.06
66035;HTU21D;52805;51.074;5.842;2024-01-10T02:47:45;-2.59;17.02
66035;HTU21D;52805;51.074;5.842;2024-01-10T02:50:11;-2.60;17.18
66035;HTU21D;52805;51.074;5.842;2024-01-10T02:52:37;-2.60;17.25
66035;HTU21D;52805;51.074;5.842;2024-01-10T02:55:03;-2.61;17.35
66035;HTU21D;52805;51.074;5.842;2024-01-10T02:57:29;-2.63;17.16
66035;HTU21D;52805;51.074;5.842;2024-01-10T02:59:54;-2.63;16.65
66035;HTU21D;52805;51.074;5.842;2024-01-10T03:02:20;-2.64;16.41
66035;HTU21D;52805;51.074;5.842;2024-01-10T03:04:45;-2.63;16.70
66035;HTU21D;52805;51.074;5.842;2024-01-10T03:07:11;-2.66;16.73
66035;HTU21D;52805;51.074;5.842;2024-01-10T03:09:37;-2.66;16.68
66035;HTU21D;52805;51.074;5.842;2024-01-10T03:12:03;-2.66;16.87
66035;HTU21D;52805;51.074;5.842;2024-01-10T03:14:28;-2.67;16.63
66035;HTU21D;52805;51.074;5.842;2024-01-10T03:16:54;-2.69;16.59
66035;HTU21D;52805;51.074;5.842;2024-01-10T03:19:20;-2.68;16.66
66035;HTU21D;52805;51.074;5.842;2024-01-10T03:21:45;-2.71;16.79
66035;HTU21D;52805;51.074;5.842;2024-01-10T03:24:11;-2.71;16.90
66035;HTU21D;52805;51.074;5.842;2024-01-10T03:26:37;-2.74;16.51
66035;HTU21D;52805;51.074;5.842;2024-01-10T03:29:03;-2.76;16.56
66035;HTU21D;52805;51.074;5.842;2024-01-10T03:31:29;-2.76;16.79
66035;HTU21D;52805;51.074;5.842;2024-01-10T03:33:58;-2.77;16.61
66035;HTU21D;52805;51.074;5.842;2024-01-10T03:36:24;-2.74;16.42
66035;HTU21D;52805;51.074;5.842;2024-01-10T03:38:50;-2.75;16.11
66035;HTU21D;52805;51.074;5.842;2024-01-10T03:41:20;-2.77;16.36
66035;HTU21D;52805;51.074;5.842;2024-01-10T03:43:46;-2.78;16.58
66035;HTU21D;52805;51.074;5.842;2024-01-10T03:46:13;-2.77;16.03
66035;HTU21D;52805;51.074;5.842;2024-01-10T03:48:39;-2.80;15.86
66035;HTU21D;52805;51.074;5.842;2024-01-10T03:51:15;-2.83;15.80
66035;HTU21D;52805;51.074;5.842;2024-01-10T03:53:41;-2.86;16.09
66035;HTU21D;52805;51.074;5.842;2024-01-10T03:56:07;-2.86;16.38
66035;HTU21D;52805;51.074;5.842;2024-01-10T03:58:33;-2.89;16.79
66035;HTU21D;52805;51.074;5.842;2024-01-10T04:00:59;-2.88;16.94
66035;HTU21D;52805;51.074;5.842;2024-01-10T04:03:24;-2.90;17.08
66035;HTU21D;52805;51.074;5.842;2024-01-10T04:05:50;-2.90;17.10
66035;HTU21D;52805;51.074;5.842;2024-01-10T04:08:16;-2.89;16.99
66035;HTU21D;52805;51.074;5.842;2024-01-10T04:10:41;-2.90;16.79
66035;HTU21D;52805;51.074;5.842;2024-01-10T04:13:07;-2.89;16.58
66035;HTU21D;52805;51.074;5.842;2024-01-10T04:15:33;-2.89;16.47
66035;HTU21D;52805;51.074;5.842;2024-01-10T04:18:00;-2.89;16.14
66035;HTU21D;52805;51.074;5.842;2024-01-10T04:20:25;-2.89;15.85
66035;HTU21D;52805;51.074;5.842;2024-01-10T04:22:51;-2.90;15.74
66035;HTU21D;52805;51.074;5.842;2024-01-10T04:25:17;-2.92;15.71
66035;HTU21D;52805;51.074;5.842;2024-01-10T04:27:42;-2.91;15.62
66035;HTU21D;52805;51.074;5.842;2024-01-10T04:30:08;-2.91;15.39
66035;HTU21D;52805;51.074;5.842;2024-01-10T04:32:34;-2.90;15.32
66035;HTU21D;52805;51.074;5.842;2024-01-10T04:35:00;-2.89;15.22
66035;HTU21D;52805;51.074;5.842;2024-01-10T04:37:26;-2.91;15.36
66035;HTU21D;52805;51.074;5.842;2024-01-10T04:39:52;-2.90;15.38
66035;HTU21D;52805;51.074;5.842;2024-01-10T04:42:17;-2.89;15.28
66035;HTU21D;52805;51.074;5.842;2024-01-10T04:44:43;-2.89;15.08
66035;HTU21D;52805;51.074;5.842;2024-01-10T04:47:09;-2.90;14.89
66035;HTU21D;52805;51.074;5.842;2024-01-10T04:49:35;-2.90;14.63
66035;HTU21D;52805;51.074;5.842;2024-01-10T04:52:01;-2.89;14.51
66035;HTU21D;52805;51.074;5.842;2024-01-10T04:54:26;-2.89;14.13
66035;HTU21D;52805;51.074;5.842;2024-01-10T04:56:52;-2.90;13.84
66035;HTU21D;52805;51.074;5.842;2024-01-10T04:59:18;-2.90;14.13
66035;HTU21D;52805;51.074;5.842;2024-01-10T05:01:43;-2.92;14.40
66035;HTU21D;52805;51.074;5.842;2024-01-10T05:04:09;-2.93;14.51
66035;HTU21D;52805;51.074;5.842;2024-01-10T05:06:35;-2.94;14.71
66035;HTU21D;52805;51.074;5.842;2024-01-10T05:09:00;-2.96;14.92
66035;HTU21D;52805;51.074;5.842;2024-01-10T05:11:26;-2.97;14.72
66035;HTU21D;52805;51.074;5.842;2024-01-10T05:13:52;-2.98;14.69
66035;HTU21D;52805;51.074;5.842;2024-01-10T05:16:18;-2.98;15.00
66035;HTU21D;52805;51.074;5.842;2024-01-10T05:18:44;-3.00;15.20
66035;HTU21D;52805;51.074;5.842;2024-01-10T05:21:09;-3.01;15.07
66035;HTU21D;52805;51.074;5.842;2024-01-10T05:23:35;-3.02;14.97
66035;HTU21D;52805;51.074;5.842;2024-01-10T05:26:02;-3.04;15.03
66035;HTU21D;52805;51.074;5.842;2024-01-10T05:28:28;-3.06;15.35
66035;HTU21D;52805;51.074;5.842;2024-01-10T05:30:53;-3.07;15.74
66035;HTU21D;52805;51.074;5.842;2024-01-10T05:33:19;-3.10;16.18
66035;HTU21D;52805;51.074;5.842;2024-01-10T05:35:45;-3.10;16.35
66035;HTU21D;52805;51.074;5.842;2024-01-10T05:38:11;-3.11;16.61
66035;HTU21D;52805;51.074;5.842;2024-01-10T05:40:37;-3.13;16.70
66035;HTU21D;52805;51.074;5.842;2024-01-10T05:43:03;-3.10;16.76
66035;HTU21D;52805;51.074;5.842;2024-01-10T05:45:29;-3.12;16.83
66035;HTU21D;52805;51.074;5.842;2024-01-10T05:47:56;-3.11;17.12
66035;HTU21D;52805;51.074;5.842;2024-01-10T05:50:21;-3.11;17.22
66035;HTU21D;52805;51.074;5.842;2024-01-10T05:52:47;-3.12;17.35
66035;HTU21D;52805;51.074;5.842;2024-01-10T05:55:13;-3.10;17.51
66035;HTU21D;52805;51.074;5.842;2024-01-10T05:57:39;-3.10;16.79
66035;HTU21D;52805;51.074;5.842;2024-01-10T06:00:06;-3.10;16.85
66035;HTU21D;52805;51.074;5.842;2024-01-10T06:02:36;-3.07;16.98
66035;HTU21D;52805;51.074;5.842;2024-01-10T06:05:07;-3.07;17.25
66035;HTU21D;52805;51.074;5.842;2024-01-10T06:07:35;-3.08;16.99
66035;HTU21D;52805;51.074;5.842;2024-01-10T06:10:01;-3.07;16.98
66035;HTU21D;52805;51.074;5.842;2024-01-10T06:12:27;-3.11;17.33
66035;HTU21D;52805;51.074;5.842;2024-01-10T06:14:53;-3.11;17.64
66035;HTU21D;52805;51.074;5.842;2024-01-10T06:17:20;-3.15;17.83
66035;HTU21D;52805;51.074;5.842;2024-01-10T06:19:45;-3.15;17.97
66035;HTU21D;52805;51.074;5.842;2024-01-10T06:22:11;-3.16;18.20
66035;HTU21D;52805;51.074;5.842;2024-01-10T06:24:37;-3.16;18.15
66035;HTU21D;52805;51.074;5.842;2024-01-10T06:27:04;-3.15;18.48
66035;HTU21D;52805;51.074;5.842;2024-01-10T06:29:31;-3.17;18.70
66035;HTU21D;52805;51.074;5.842;2024-01-10T06:31:57;-3.16;18.92
66035;HTU21D;52805;51.074;5.842;2024-01-10T06:34:24;-3.15;18.92
66035;HTU21D;52805;51.074;5.842;2024-01-10T06:36:50;-3.16;19.25
66035;HTU21D;52805;51.074;5.842;2024-01-10T06:39:16;-3.15;19.19
66035;HTU21D;52805;51.074;5.842;2024-01-10T06:41:49;-3.13;19.18
66035;HTU21D;52805;51.074;5.842;2024-01-10T06:44:15;-3.09;19.22
66035;HTU21D;52805;51.074;5.842;2024-01-10T06:46:43;-3.10;19.27
66035;HTU21D;52805;51.074;5.842;2024-01-10T06:49:09;-3.09;18.64
66035;HTU21D;52805;51.074;5.842;2024-01-10T06:51:35;-3.07;18.80
66035;HTU21D;52805;51.074;5.842;2024-01-10T06:54:01;-3.07;18.42
66035;HTU21D;52805;51.074;5.842;2024-01-10T06:56:35;-3.08;18.36
66035;HTU21D;52805;51.074;5.842;2024-01-10T06:59:01;-3.04;18.52
66035;HTU21D;52805;51.074;5.842;2024-01-10T07:01:27;-3.04;18.15
66035;HTU21D;52805;51.074;5.842;2024-01-10T07:03:54;-3.05;18.19
66035;HTU21D;52805;51.074;5.842;2024-01-10T07:06:23;-3.03;17.85
66035;HTU21D;52805;51.074;5.842;2024-01-10T07:08:49;-3.03;18.12
66035;HTU21D;52805;51.074;5.842;2024-01-10T07:11:16;-3.05;18.65
66035;HTU21D;52805;51.074;5.842;2024-01-10T07:13:42;-3.06;19.22
66035;HTU21D;52805;51.074;5.842;2024-01-10T07:16:09;-3.04;19.31
66035;HTU21D;52805;51.074;5.842;2024-01-10T07:18:34;-3.06;19.48
66035;HTU21D;52805;51.074;5.842;2024-01-10T07:21:00;-3.05;19.76
66035;HTU21D;52805;51.074;5.842;2024-01-10T07:23:26;-3.04;19.39
66035;HTU21D;52805;51.074;5.842;2024-01-10T07:25:52;-3.02;18.83
66035;HTU21D;52805;51.074;5.842;2024-01-10T07:28:18;-3.03;18.67
66035;HTU21D;52805;51.074;5.842;2024-01-10T07:30:45;-3.03;19.10
66035;HTU21D;52805;51.074;5.842;2024-01-10T07:33:11;-3.04;19.71
66035;HTU21D;52805;51.074;5.842;2024-01-10T07:35:37;-3.05;20.18
66035;HTU21D;52805;51.074;5.842;2024-01-10T07:38:05;-3.03;20.21
66035;HTU21D;52805;51.074;5.842;2024-01-10T07:40:34;-3.05;20.34
66035;HTU21D;52805;51.074;5.842;2024-01-10T07:43:00;-3.05;20.57
66035;HTU21D;52805;51.074;5.842;2024-01-10T07:45:26;-3.04;20.86
66035;HTU21D;52805;51.074;5.842;2024-01-10T07:47:52;-3.04;20.95
66035;HTU21D;52805;51.074;5.842;2024-01-10T07:50:18;-3.02;21.18
66035;HTU21D;52805;51.074;5.842;2024-01-10T07:52:45;-3.02;21.25
66035;HTU21D;52805;51.074;5.842;2024-01-10T07:55:12;-3.01;21.34
66035;HTU21D;52805;51.074;5.842;2024-01-10T07:57:38;-2.98;21.02
66035;HTU21D;52805;51.074;5.842;2024-01-10T08:00:05;-2.98;21.22
66035;HTU21D;52805;51.074;5.842;2024-01-10T08:02:34;-2.96;21.69
66035;HTU21D;52805;51.074;5.842;2024-01-10T08:05:03;-2.94;21.73
66035;HTU21D;52805;51.074;5.842;2024-01-10T08:07:38;-2.93;21.65
66035;HTU21D;52805;51.074;5.842;2024-01-10T08:10:09;-2.94;21.55
66035;HTU21D;52805;51.074;5.842;2024-01-10T08:12:37;-2.92;21.60
66035;HTU21D;52805;51.074;5.842;2024-01-10T08:15:04;-2.93;21.50
66035;HTU21D;52805;51.074;5.842;2024-01-10T08:17:32;-2.92;21.46
66035;HTU21D;52805;51.074;5.842;2024-01-10T08:19:58;-2.89;21.53
66035;HTU21D;52805;51.074;5.842;2024-01-10T08:22:25;-2.87;21.67
66035;HTU21D;52805;51.074;5.842;2024-01-10T08:24:51;-2.84;21.75
66035;HTU21D;52805;51.074;5.842;2024-01-10T08:27:17;-2.83;21.89
66035;HTU21D;52805;51.074;5.842;2024-01-10T08:29:42;-2.81;21.84
66035;HTU21D;52805;51.074;5.842;2024-01-10T08:32:08;-2.82;22.07
66035;HTU21D;52805;51.074;5.842;2024-01-10T08:34:34;-2.80;22.35
66035;HTU21D;52805;51.074;5.842;2024-01-10T08:36:59;-2.77;22.40
66035;HTU21D;52805;51.074;5.842;2024-01-10T08:39:25;-2.74;22.50
66035;HTU21D;52805;51.074;5.842;2024-01-10T08:41:54;-2.71;22.28
66035;HTU21D;52805;51.074;5.842;2024-01-10T08:44:20;-2.67;22.44
66035;HTU21D;52805;51.074;5.842;2024-01-10T08:46:46;-2.63;22.58
66035;HTU21D;52805;51.074;5.842;2024-01-10T08:49:13;-2.60;22.49
66035;HTU21D;52805;51.074;5.842;2024-01-10T08:51:39;-2.57;22.72
66035;HTU21D;52805;51.074;5.842;2024-01-10T08:54:06;-2.51;21.95
66035;HTU21D;52805;51.074;5.842;2024-01-10T08:56:32;-2.51;21.94
66035;HTU21D;52805;51.074;5.842;2024-01-10T08:58:57;-2.42;22.12
66035;HTU21D;52805;51.074;5.842;2024-01-10T09:01:23;-2.36;21.42
66035;HTU21D;52805;51.074;5.842;2024-01-10T09:03:49;-2.35;21.13
66035;HTU21D;52805;51.074;5.842;2024-01-10T09:06:14;-2.31;21.36
66035;HTU21D;52805;51.074;5.842;2024-01-10T09:08:40;-2.23;21.51
66035;HTU21D;52805;51.074;5.842;2024-01-10T09:11:06;-2.22;20.96
66035;HTU21D;52805;51.074;5.842;2024-01-10T09:13:32;-2.21;20.92
66035;HTU21D;52805;51.074;5.842;2024-01-10T09:15:57;-2.17;21.27
66035;HTU21D;52805;51.074;5.842;2024-01-10T09:18:23;-2.10;20.74
66035;HTU21D;52805;51.074;5.842;2024-01-10T09:20:49;-2.07;20.36
66035;HTU21D;52805;51.074;5.842;2024-01-10T09:23:14;-1.99;19.96
66035;HTU21D;52805;51.074;5.842;2024-01-10T09:25:41;-1.98;19.83
66035;HTU21D;52805;51.074;5.842;2024-01-10T09:28:06;-1.92;19.78
66035;HTU21D;52805;51.074;5.842;2024-01-10T09:30:33;-1.85;19.46
66035;HTU21D;52805;51.074;5.842;2024-01-10T09:32:59;-1.82;19.31
66035;HTU21D;52805;51.074;5.842;2024-01-10T09:35:26;-1.73;18.52
66035;HTU21D;52805;51.074;5.842;2024-01-10T09:37:51;-1.69;16.98
66035;HTU21D;52805;51.074;5.842;2024-01-10T09:40:19;-1.70;17.41
66035;HTU21D;52805;51.074;5.842;2024-01-10T09:42:49;-1.61;17.20
66035;HTU21D;52805;51.074;5.842;2024-01-10T09:45:16;-1.58;17.22
66035;HTU21D;52805;51.074;5.842;2024-01-10T09:47:48;-1.55;16.96
66035;HTU21D;52805;51.074;5.842;2024-01-10T09:50:14;-1.50;17.00
66035;HTU21D;52805;51.074;5.842;2024-01-10T09:52:53;-1.45;17.09
66035;HTU21D;52805;51.074;5.842;2024-01-10T09:55:21;-1.46;16.88
66035;HTU21D;52805;51.074;5.842;2024-01-10T09:57:47;-1.42;16.85
66035;HTU21D;52805;51.074;5.842;2024-01-10T10:00:15;-1.41;16.38
66035;HTU21D;52805;51.074;5.842;2024-01-10T10:02:42;-1.40;16.22
66035;HTU21D;52805;51.074;5.842;2024-01-10T10:05:09;-1.36;15.74
66035;HTU21D;52805;51.074;5.842;2024-01-10T10:07:49;-1.38;15.97
66035;HTU21D;52805;51.074;5.842;2024-01-10T10:10:17;-1.38;16.22
66035;HTU21D;52805;51.074;5.842;2024-01-10T10:12:52;-1.35;15.91
66035;HTU21D;52805;51.074;5.842;2024-01-10T10:15:21;-1.40;15.26
66035;HTU21D;52805;51.074;5.842;2024-01-10T10:17:52;-1.39;15.04
66035;HTU21D;52805;51.074;5.842;2024-01-10T10:20:24;-1.39;15.72
66035;HTU21D;52805;51.074;5.842;2024-01-10T10:23:03;-1.38;16.28
66035;HTU21D;52805;51.074;5.842;2024-01-10T10:25:33;-1.35;16.54
66035;HTU21D;52805;51.074;5.842;2024-01-10T10:28:01;-1.32;16.58
66035;HTU21D;52805;51.074;5.842;2024-01-10T10:30:27;-1.32;16.38
66035;HTU21D;52805;51.074;5.842;2024-01-10T10:32:54;-1.29;16.00
66035;HTU21D;52805;51.074;5.842;2024-01-10T10:35:20;-1.27;15.98
66035;HTU21D;52805;51.074;5.842;2024-01-10T10:37:51;-1.27;15.33
66035;HTU21D;52805;51.074;5.842;2024-01-10T10:40:18;-1.27;15.77
66035;HTU21D;52805;51.074;5.842;2024-01-10T10:42:46;-1.26;16.20
66035;HTU21D;52805;51.074;5.842;2024-01-10T10:45:16;-1.23;15.75
66035;HTU21D;52805;51.074;5.842;2024-01-10T10:47:46;-1.24;15.70
66035;HTU21D;52805;51.074;5.842;2024-01-10T10:50:22;-1.21;15.46
66035;HTU21D;52805;51.074;5.842;2024-01-10T10:52:50;-1.23;14.13
66035;HTU21D;52805;51.074;5.842;2024-01-10T10:55:17;-1.25;14.76
66035;HTU21D;52805;51.074;5.842;2024-01-10T10:57:45;-1.20;15.20
66035;HTU21D;52805;51.074;5.842;2024-01-10T11:00:17;-1.18;15.26
66035;HTU21D;52805;51.074;5.842;2024-01-10T11:02:44;-1.16;15.41
66035;HTU21D;52805;51.074;5.842;2024-01-10T11:05:11;-1.11;15.67
66035;HTU21D;52805;51.074;5.842;2024-01-10T11:07:38;-1.01;15.77
66035;HTU21D;52805;51.074;5.842;2024-01-10T11:10:12;-0.96;15.57
66035;HTU21D;52805;51.074;5.842;2024-01-10T11:15:54;-0.81;15.66
66035;HTU21D;52805;51.074;5.842;2024-01-10T11:21:37;-0.73;14.56
66035;HTU21D;52805;51.074;5.842;2024-01-10T11:24:09;-0.66;14.09
66035;HTU21D;52805;51.074;5.842;2024-01-10T11:26:38;-0.60;13.44
66035;HTU21D;52805;51.074;5.842;2024-01-10T11:29:05;-0.59;12.78
66035;HTU21D;52805;51.074;5.842;2024-01-10T11:31:32;-0.55;12.90
66035;HTU21D;52805;51.074;5.842;2024-01-10T11:34:00;-0.49;13.02
66035;HTU21D;52805;51.074;5.842;2024-01-10T11:36:26;-0.41;12.97
66035;HTU21D;52805;51.074;5.842;2024-01-10T11:41:33;-0.26;12.52
66035;HTU21D;52805;51.074;5.842;2024-01-10T11:46:39;-0.06;12.89
66035;HTU21D;52805;51.074;5.842;2024-01-10T11:49:11;0.04;12.20
66035;HTU21D;52805;51.074;5.842;2024-01-10T11:51:45;0.12;11.59
66035;HTU21D;52805;51.074;5.842;2024-01-10T11:54:11;0.19;10.85
66035;HTU21D;52805;51.074;5.842;2024-01-10T11:56:42;0.21;10.08
66035;HTU21D;52805;51.074;5.842;2024-01-10T11:59:11;0.25;9.88
66035;HTU21D;52805;51.074;5.842;2024-01-10T12:01:38;0.30;9.53
66035;HTU21D;52805;51.074;5.842;2024-01-10T12:04:05;0.31;9.10
66035;HTU21D;52805;51.074;5.842;2024-01-10T12:06:34;0.32;8.53
66035;HTU21D;52805;51.074;5.842;2024-01-10T12:09:00;0.31;8.13
66035;HTU21D;52805;51.074;5.842;2024-01-10T12:11:30;0.30;7.61
66035;HTU21D;52805;51.074;5.842;2024-01-10T12:13:57;0.30;7.14
66035;HTU21D;52805;51.074;5.842;2024-01-10T12:16:23;0.29;6.96
66035;HTU21D;52805;51.074;5.842;2024-01-10T12:18:49;0.28;6.76
66035;HTU21D;52805;51.074;5.842;2024-01-10T12:21:14;0.28;6.71
66035;HTU21D;52805;51.074;5.842;2024-01-10T12:23:40;0.28;6.66
66035;HTU21D;52805;51.074;5.842;2024-01-10T12:26:09;0.30;6.45
66035;HTU21D;52805;51.074;5.842;2024-01-10T12:28:38;0.30;6.34
66035;HTU21D;52805;51.074;5.842;2024-01-10T12:31:05;0.32;6.05
66035;HTU21D;52805;51.074;5.842;2024-01-10T12:33:34;0.31;5.86
66035;HTU21D;52805;51.074;5.842;2024-01-10T12:36:08;0.31;5.42
66035;HTU21D;52805;51.074;5.842;2024-01-10T12:38:35;0.30;4.91
66035;HTU21D;52805;51.074;5.842;2024-01-10T12:41:02;0.30;5.13
66035;HTU21D;52805;51.074;5.842;2024-01-10T12:43:29;0.29;5.32
66035;HTU21D;52805;51.074;5.842;2024-01-10T12:48:34;0.33;5.06
66035;HTU21D;52805;51.074;5.842;2024-01-10T12:51:04;0.36;5.26
66035;HTU21D;52805;51.074;5.842;2024-01-10T12:53:43;0.40;5.31
66035;HTU21D;52805;51.074;5.842;2024-01-10T12:56:10;0.44;5.30
66035;HTU21D;52805;51.074;5.842;2024-01-10T12:58:41;0.46;5.10
66035;HTU21D;52805;51.074;5.842;2024-01-10T13:01:10;0.48;4.37
66035;HTU21D;52805;51.074;5.842;2024-01-10T13:03:38;0.50;4.05
66035;HTU21D;52805;51.074;5.842;2024-01-10T13:06:04;0.51;4.10
66035;HTU21D;52805;51.074;5.842;2024-01-10T13:08:30;0.52;3.92
66035;HTU21D;52805;51.074;5.842;2024-01-10T13:10:58;0.55;3.72
66035;HTU21D;52805;51.074;5.842;2024-01-10T13:13:26;0.61;3.59
66035;HTU21D;52805;51.074;5.842;2024-01-10T13:15:52;0.66;3.29
66035;HTU21D;52805;51.074;5.842;2024-01-10T13:18:18;0.71;2.88
66035;HTU21D;52805;51.074;5.842;2024-01-10T13:20:44;0.76;2.77
66035;HTU21D;52805;51.074;5.842;2024-01-10T13:23:11;0.78;1.87
66035;HTU21D;52805;51.074;5.842;2024-01-10T13:25:37;0.80;1.79
66035;HTU21D;52805;51.074;5.842;2024-01-10T13:28:05;0.81;1.84
66035;HTU21D;52805;51.074;5.842;2024-01-10T13:30:31;0.80;1.88
66035;HTU21D;52805;51.074;5.842;2024-01-10T13:32:57;0.83;1.96
66035;HTU21D;52805;51.074;5.842;2024-01-10T13:35:24;0.84;1.86
66035;HTU21D;52805;51.074;5.842;2024-01-10T13:37:50;0.89;1.44
66035;HTU21D;52805;51.074;5.842;2024-01-10T13:40:16;0.95;1.45
66035;HTU21D;52805;51.074;5.842;2024-01-10T13:42:43;0.96;0.97
66035;HTU21D;52805;51.074;5.842;2024-01-10T13:45:10;0.97;0.89
66035;HTU21D;52805;51.074;5.842;2024-01-10T13:47:36;1.04;0.56
66035;HTU21D;52805;51.074;5.842;2024-01-10T13:50:04;1.07;0.52
66035;HTU21D;52805;51.074;5.842;2024-01-10T13:52:32;1.07;0.65
66035;HTU21D;52805;51.074;5.842;2024-01-10T13:54:57;1.11;0.74
66035;HTU21D;52805;51.074;5.842;2024-01-10T13:57:23;1.18;0.61
66035;HTU21D;52805;51.074;5.842;2024-01-10T13:59:49;1.19;0.39
66035;HTU21D;52805;51.074;5.842;2024-01-10T14:02:16;1.25;0.32
66035;HTU21D;52805;51.074;5.842;2024-01-10T14:04:44;1.33;-0.41
66035;HTU21D;52805;51.074;5.842;2024-01-10T14:07:10;1.36;-0.64
66035;HTU21D;52805;51.074;5.842;2024-01-10T14:09:36;1.39;-0.85
66035;HTU21D;52805;51.074;5.842;2024-01-10T14:12:02;1.46;-0.80
66035;HTU21D;52805;51.074;5.842;2024-01-10T14:14:28;1.50;-0.57
66035;HTU21D;52805;51.074;5.842;2024-01-10T14:16:53;1.55;-0.70
66035;HTU21D;52805;51.074;5.842;2024-01-10T14:19:19;1.61;-0.70
66035;HTU21D;52805;51.074;5.842;2024-01-10T14:21:45;1.66;-0.92
66035;HTU21D;52805;51.074;5.842;2024-01-10T14:24:11;1.68;-1.07
66035;HTU21D;52805;51.074;5.842;2024-01-10T14:26:37;1.75;-1.55
66035;HTU21D;52805;51.074;5.842;2024-01-10T14:29:03;1.75;-1.55
66035;HTU21D;52805;51.074;5.842;2024-01-10T14:31:29;1.80;-1.67
66035;HTU21D;52805;51.074;5.842;2024-01-10T14:33:54;1.83;-1.55
66035;HTU21D;52805;51.074;5.842;2024-01-10T14:36:20;1.87;-1.88
66035;HTU21D;52805;51.074;5.842;2024-01-10T14:38:46;1.90;-1.81
66035;HTU21D;52805;51.074;5.842;2024-01-10T14:41:12;1.94;-1.41
66035;HTU21D;52805;51.074;5.842;2024-01-10T14:43:38;2.01;-1.01
66035;HTU21D;52805;51.074;5.842;2024-01-10T14:46:04;2.09;-0.80
66035;HTU21D;52805;51.074;5.842;2024-01-10T14:48:33;2.15;-0.86
66035;HTU21D;52805;51.074;5.842;2024-01-10T14:50:59;2.21;-0.84
66035;HTU21D;52805;51.074;5.842;2024-01-10T14:53:28;2.24;-1.00
66035;HTU21D;52805;51.074;5.842;2024-01-10T14:55:54;2.27;-0.83
66035;HTU21D;52805;51.074;5.842;2024-01-10T14:58:20;2.32;-0.62
66035;HTU21D;52805;51.074;5.842;2024-01-10T15:00:46;2.37;-0.80
66035;HTU21D;52805;51.074;5.842;2024-01-10T15:03:12;2.38;-1.26
66035;HTU21D;52805;51.074;5.842;2024-01-10T15:05:40;2.36;-1.41
66035;HTU21D;52805;51.074;5.842;2024-01-10T15:08:07;2.35;-1.43
66035;HTU21D;52805;51.074;5.842;2024-01-10T15:10:38;2.34;-1.67
66035;HTU21D;52805;51.074;5.842;2024-01-10T15:13:09;2.34;-1.47
66035;HTU21D;52805;51.074;5.842;2024-01-10T15:15:40;2.32;-1.38
66035;HTU21D;52805;51.074;5.842;2024-01-10T15:18:07;2.32;-1.74
66035;HTU21D;52805;51.074;5.842;2024-01-10T15:20:33;2.26;-1.78
66035;HTU21D;52805;51.074;5.842;2024-01-10T15:22:59;2.26;-1.45
66035;HTU21D;52805;51.074;5.842;2024-01-10T15:25:25;2.25;-1.03
66035;HTU21D;52805;51.074;5.842;2024-01-10T15:27:51;2.26;-0.87
66035;HTU21D;52805;51.074;5.842;2024-01-10T15:30:18;2.23;-0.93
66035;HTU21D;52805;51.074;5.842;2024-01-10T15:32:44;2.21;-1.00
66035;HTU21D;52805;51.074;5.842;2024-01-10T15:35:10;2.17;-0.93